createdAt,value
2023-03-08T00:02:57.962Z,94314.47
2023-03-08T00:07:59.518Z,94316.03
2023-03-08T00:13:01.044Z,94319.50
2023-03-08T00:18:02.962Z,94332.66
2023-03-08T00:23:04.541Z,94331.47
2023-03-08T00:28:06.037Z,94335.34
2023-03-08T00:33:07.563Z,94326.44
2023-03-08T00:38:09.033Z,94333.41
2023-03-08T00:43:10.607Z,94336.88
2023-03-08T00:48:12.520Z,94330.69
2023-03-08T00:53:14.586Z,94342.28
2023-03-08T00:58:17.337Z,94329.53
2023-03-08T01:03:20.150Z,94331.47
2023-03-08T01:08:24.282Z,94332.25
2023-03-08T01:13:32.449Z,94323.38
2023-03-08T01:18:34.220Z,94326.06
2023-03-08T01:23:35.958Z,94325.28
2023-03-08T01:28:37.902Z,94326.47
2023-03-08T01:33:42.149Z,94317.56
2023-03-08T01:38:44.451Z,94318.34
2023-03-08T01:43:46.846Z,94321.81
2023-03-08T01:49:09.746Z,94310.22
2023-03-08T01:54:17.439Z,94309.84
2023-03-08T01:59:22.066Z,94306.75
2023-03-08T02:04:23.873Z,94316.41
2023-03-08T02:09:25.547Z,94307.91
2023-03-08T02:14:28.820Z,94294.00
2023-03-08T02:19:38.707Z,94314.09
2023-03-08T02:24:40.384Z,94299.78
2023-03-08T02:29:41.938Z,94295.16
2023-03-08T02:34:43.555Z,94297.09
2023-03-08T02:39:45.049Z,94290.91
2023-03-08T02:44:46.671Z,94291.69
2023-03-08T02:49:48.239Z,94294.78
2023-03-08T02:54:49.948Z,94295.53
2023-03-08T02:59:51.637Z,94290.13
2023-03-08T03:04:53.364Z,94290.94
2023-03-08T03:09:55.166Z,94290.53
2023-03-08T03:14:56.972Z,94290.91
2023-03-08T03:19:58.801Z,94305.97
2023-03-08T03:25:00.343Z,94298.25
2023-03-08T03:30:02.075Z,94306.38
2023-03-08T03:35:05.006Z,94309.44
2023-03-08T03:40:07.487Z,94307.91
2023-03-08T03:45:09.720Z,94309.06
2023-03-08T03:50:12.406Z,94310.97
2023-03-08T03:55:22.728Z,94309.81
2023-03-08T04:00:24.584Z,94312.13
2023-03-08T04:05:42.900Z,94302.84
2023-03-08T04:10:45.814Z,94297.81
2023-03-08T04:15:48.431Z,94293.16
2023-03-08T04:20:50.266Z,94284.25
2023-03-08T04:25:51.985Z,94279.22
2023-03-08T04:30:54.854Z,94280.34
2023-03-08T04:35:56.799Z,94275.28
2023-03-08T04:41:06.197Z,94281.44
2023-03-08T04:46:18.752Z,94282.63
2023-03-08T04:51:22.394Z,94280.28
2023-03-08T04:56:24.384Z,94272.59
2023-03-08T05:01:26.983Z,94272.22
2023-03-08T05:06:29.168Z,94259.09
2023-03-08T05:11:32.481Z,94254.47
2023-03-08T05:16:34.721Z,94232.47
2023-03-08T05:21:37.876Z,94232.84
2023-03-08T05:26:39.644Z,94229.38
2023-03-08T05:31:45.382Z,94232.06
2023-03-08T05:36:47.877Z,94231.31
2023-03-08T05:41:49.588Z,94229.38
2023-03-08T05:46:57.563Z,94205.47
2023-03-08T05:51:59.179Z,94205.88
2023-03-08T05:57:02.375Z,94204.72
2023-03-08T06:02:05.193Z,94207.44
2023-03-08T06:07:32.931Z,94198.56
2023-03-08T06:12:41.017Z,94202.06
2023-03-08T06:17:46.111Z,94221.34
2023-03-08T06:22:51.528Z,94234.06
2023-03-08T06:27:53.793Z,94234.06
2023-03-08T06:33:01.596Z,94247.19
2023-03-08T06:38:03.402Z,94246.44
2023-03-08T06:43:06.425Z,94258.78
2023-03-08T06:48:08.085Z,94246.06
2023-03-08T06:53:10.882Z,94240.66
2023-03-08T06:58:24.013Z,94234.47
2023-03-08T07:03:26.989Z,94233.31
2023-03-08T07:08:28.627Z,94239.47
2023-03-08T07:13:30.160Z,94242.91
2023-03-08T07:18:31.729Z,94238.69
2023-03-08T07:23:33.307Z,94215.16
2023-03-08T07:28:35.616Z,94231.03
2023-03-08T07:33:37.129Z,94217.91
2023-03-08T07:38:38.853Z,94229.88
2023-03-08T07:43:40.353Z,94221.38
2023-03-08T07:48:49.306Z,94211.38
2023-03-08T07:53:52.319Z,94193.59
2023-03-08T07:58:57.377Z,94194.00
2023-03-08T08:04:00.365Z,94198.25
2023-03-08T08:09:02.330Z,94200.16
2023-03-08T08:14:04.338Z,94197.03
2023-03-08T08:19:06.237Z,94190.09
2023-03-08T08:24:08.704Z,94193.19
2023-03-08T08:29:10.820Z,94194.34
2023-03-08T08:34:12.393Z,94166.09
2023-03-08T08:39:13.961Z,94180.03
2023-03-08T08:44:15.525Z,94177.34
2023-03-08T08:49:17.064Z,94159.16
2023-03-08T08:54:18.833Z,94147.16
2023-03-08T08:59:20.455Z,94136.75
2023-03-08T09:04:22.107Z,94127.06
2023-03-08T09:09:23.672Z,94110.84
2023-03-08T09:14:25.784Z,94109.69
2023-03-08T09:19:27.350Z,94113.94
2023-03-08T09:24:28.916Z,94105.41
2023-03-08T09:29:30.422Z,94098.03
2023-03-08T09:34:32.144Z,94079.91
2023-03-08T09:39:34.528Z,94063.63
2023-03-08T09:45:01.335Z,94041.53
2023-03-08T09:50:33.881Z,94033.41
2023-03-08T09:55:38.354Z,94029.91
2023-03-08T10:00:41.341Z,94008.25
2023-03-08T10:06:00.464Z,93993.56
2023-03-08T10:11:07.241Z,93988.94
2023-03-08T10:16:25.894Z,93965.34
2023-03-08T10:21:29.759Z,93949.91
2023-03-08T10:26:31.727Z,93950.66
2023-03-08T10:31:33.822Z,93953.75
2023-03-08T10:36:46.302Z,93952.22
2023-03-08T10:42:00.126Z,93942.59
2023-03-08T10:47:04.690Z,93936.00
2023-03-08T10:52:25.181Z,93944.56
2023-03-08T10:57:27.547Z,93941.13
2023-03-08T11:02:29.490Z,93930.34
2023-03-08T11:07:33.234Z,93929.19
2023-03-08T11:12:34.772Z,93912.22
2023-03-08T11:17:39.459Z,93922.28
2023-03-08T11:23:05.627Z,93906.47
2023-03-08T11:28:14.744Z,93898.00
2023-03-08T11:33:44.305Z,93899.94
2023-03-08T11:39:11.804Z,93897.25
2023-03-08T11:44:31.226Z,93892.63
2023-03-08T11:49:51.126Z,93887.97
2023-03-08T11:55:07.550Z,93875.63
2023-03-08T12:00:28.091Z,93870.66
2023-03-08T12:05:41.038Z,93860.25
2023-03-08T12:10:49.933Z,93854.09
2023-03-08T12:16:12.846Z,93853.28
2023-03-08T12:21:38.734Z,93844.47
2023-03-08T12:26:48.636Z,93813.16
2023-03-08T12:31:51.687Z,93807.69
2023-03-08T12:36:53.814Z,93820.84
2023-03-08T12:42:10.671Z,93825.88
2023-03-08T12:47:12.103Z,93804.94
2023-03-08T12:52:19.562Z,93803.72
2023-03-08T12:57:31.092Z,93805.22
2023-03-08T13:02:34.755Z,93792.00
2023-03-08T13:07:57.268Z,93787.66
2023-03-08T13:13:18.494Z,93788.34
2023-03-08T13:18:32.575Z,93773.94
2023-03-08T13:23:40.874Z,93778.84
2023-03-08T13:28:47.669Z,93784.97
2023-03-08T13:33:55.151Z,93782.94
2023-03-08T13:39:05.567Z,93784.81
2023-03-08T13:44:28.180Z,93778.94
2023-03-08T13:49:43.242Z,93772.69
2023-03-08T13:54:49.081Z,93778.06
2023-03-08T13:59:53.718Z,93759.47
2023-03-08T14:04:56.717Z,93751.31
2023-03-08T14:09:58.939Z,93748.84
2023-03-08T14:15:04.545Z,93754.66
2023-03-08T14:20:19.397Z,93747.94
2023-03-08T14:25:31.985Z,93738.19
2023-03-08T14:30:33.784Z,93736.56
2023-03-08T14:35:45.256Z,93724.44
2023-03-08T14:40:51.941Z,93734.75
2023-03-08T14:46:00.781Z,93710.66
2023-03-08T14:51:26.975Z,93699.28
2023-03-08T14:56:30.411Z,93700.00
2023-03-08T15:01:34.803Z,93681.78
2023-03-08T15:06:39.808Z,93684.25
2023-03-08T15:11:41.669Z,93665.44
2023-03-08T15:16:43.346Z,93663.56
2023-03-08T15:21:44.926Z,93652.09
2023-03-08T15:26:46.569Z,93645.91
2023-03-08T15:31:48.134Z,93641.19
2023-03-08T15:36:50.695Z,93644.75
2023-03-08T15:41:52.289Z,93650.78
2023-03-08T15:46:54.330Z,93648.53
2023-03-08T15:51:55.935Z,93642.78
2023-03-08T15:56:58.443Z,93643.28
2023-03-08T16:02:00.117Z,93639.25
2023-03-08T16:07:01.774Z,93647.16
2023-03-08T16:12:03.577Z,93654.09
2023-03-08T16:17:05.767Z,93670.25
2023-03-08T16:22:07.582Z,93663.44
2023-03-08T16:27:09.162Z,93664.81
2023-03-08T16:32:15.014Z,93646.03
2023-03-08T16:37:20.871Z,93638.13
2023-03-08T16:42:22.905Z,93628.34
2023-03-08T16:47:26.384Z,93630.19
2023-03-08T16:52:28.457Z,93628.59
2023-03-08T16:57:29.987Z,93617.88
2023-03-08T17:02:31.622Z,93613.53
2023-03-08T17:07:33.202Z,93625.97
2023-03-08T17:12:34.790Z,93620.69
2023-03-08T17:17:39.493Z,93619.78
2023-03-08T17:22:41.099Z,93602.00
2023-03-08T17:27:42.600Z,93614.31
2023-03-08T17:32:44.214Z,93617.69
2023-03-08T17:37:45.873Z,93628.59
2023-03-08T17:42:47.829Z,93638.28
2023-03-08T17:47:49.431Z,93636.31
2023-03-08T17:52:50.960Z,93630.13
2023-03-08T17:57:52.795Z,93628.50
2023-03-08T18:02:54.615Z,93634.94
2023-03-08T18:07:56.298Z,93627.81
2023-03-08T18:12:57.939Z,93630.09
2023-03-08T18:17:59.503Z,93614.34
2023-03-08T18:23:01.576Z,93619.59
2023-03-08T18:28:03.224Z,93622.31
2023-03-08T18:33:05.310Z,93623.41
2023-03-08T18:38:07.034Z,93629.19
2023-03-08T18:43:08.618Z,93639.75
2023-03-08T18:48:10.432Z,93632.84
2023-03-08T18:53:12.824Z,93631.00
2023-03-08T18:58:14.354Z,93637.97
2023-03-08T19:03:15.874Z,93630.91
2023-03-08T19:08:17.560Z,93609.47
2023-03-08T19:13:19.164Z,93630.63
2023-03-08T19:18:20.744Z,93616.38
2023-03-08T19:23:22.388Z,93613.13
2023-03-08T19:28:24.101Z,93612.59
2023-03-08T19:33:31.024Z,93608.69
2023-03-08T19:38:33.593Z,93614.91
2023-03-08T19:43:35.583Z,93607.38
2023-03-08T19:48:37.826Z,93613.50
2023-03-08T19:53:40.189Z,93602.16
2023-03-08T19:58:41.962Z,93615.97
2023-03-08T20:03:43.808Z,93627.50
2023-03-08T20:08:46.710Z,93601.47
2023-03-08T20:13:48.402Z,93614.25
2023-03-08T20:18:50.323Z,93599.38
2023-03-08T20:23:55.421Z,93604.47
2023-03-08T20:28:58.018Z,93600.63
2023-03-08T20:33:59.811Z,93599.22
2023-03-08T20:39:01.633Z,93596.41
2023-03-08T20:44:03.456Z,93603.38
2023-03-08T20:49:05.006Z,93595.44
2023-03-08T20:54:06.645Z,93610.69
2023-03-08T20:59:08.274Z,93587.59
2023-03-08T21:04:09.906Z,93575.28
2023-03-08T21:09:11.565Z,93594.34
2023-03-08T21:14:13.250Z,93562.19
2023-03-08T21:19:14.817Z,93582.16
2023-03-08T21:24:18.698Z,93573.44
2023-03-08T21:29:21.532Z,93547.09
2023-03-08T21:34:23.366Z,93544.69
2023-03-08T21:39:27.000Z,93543.78
2023-03-08T21:44:30.949Z,93553.16
2023-03-08T21:49:36.430Z,93555.34
2023-03-08T21:54:38.067Z,93572.41
2023-03-08T21:59:39.678Z,93565.88
2023-03-08T22:04:41.191Z,93567.84
2023-03-08T22:09:42.885Z,93556.19
2023-03-08T22:14:44.567Z,93577.75
2023-03-08T22:19:46.147Z,93577.75
2023-03-08T22:24:47.871Z,93558.81
2023-03-08T22:29:49.960Z,93562.94
2023-03-08T22:34:51.671Z,93572.09
2023-03-08T22:39:53.309Z,93580.78
2023-03-08T22:44:54.979Z,93569.03
2023-03-08T22:49:56.599Z,93572.84
2023-03-08T22:54:58.186Z,93573.53
2023-03-08T22:59:59.882Z,93569.06
2023-03-08T23:05:01.387Z,93567.78
2023-03-08T23:10:04.347Z,93594.06
2023-03-08T23:15:07.342Z,93609.09
2023-03-08T23:20:10.772Z,93611.72
2023-03-08T23:25:12.662Z,93629.16
2023-03-08T23:30:15.414Z,93614.88
2023-03-08T23:35:17.016Z,93602.69
2023-03-08T23:40:18.671Z,93597.91
2023-03-08T23:45:21.141Z,93595.38
2023-03-08T23:50:22.708Z,93596.06
2023-03-08T23:55:24.630Z,93596.34
